sensor_id;sensor_type;location;lat;lon;timestamp;temperature;humidity
19868;DHT22;10096;51.112;6.776;2022-12-22T00:02:11;10.00;97.40
19868;DHT22;10096;51.112;6.776;2022-12-22T00:04:59;9.90;99.90
19868;DHT22;10096;51.112;6.776;2022-12-22T00:07:43;10.10;99.90
19868;DHT22;10096;51.112;6.776;2022-12-22T00:10:27;10.00;99.90
19868;DHT22;10096;51.112;6.776;2022-12-22T00:13:13;9.80;1.00
19868;DHT22;10096;51.112;6.776;2022-12-22T00:15:57;9.80;1.00
19868;DHT22;10096;51.112;6.776;2022-12-22T00:18:41;10.10;94.20
19868;DHT22;10096;51.112;6.776;2022-12-22T00:21:28;9.80;1.00
19868;DHT22;10096;51.112;6.776;2022-12-22T00:24:13;9.90;99.90
19868;DHT22;10096;51.112;6.776;2022-12-22T00:26:57;10.00;36.00
19868;DHT22;10096;51.112;6.776;2022-12-22T00:29:42;10.10;52.50
19868;DHT22;10096;51.112;6.776;2022-12-22T00:32:31;10.10;1.00
19868;DHT22;10096;51.112;6.776;2022-12-22T00:35:16;10.30;1.00
19868;DHT22;10096;51.112;6.776;2022-12-22T00:38:11;10.00;1.00
19868;DHT22;10096;51.112;6.776;2022-12-22T00:40:57;10.20;99.90
19868;DHT22;10096;51.112;6.776;2022-12-22T00:43:41;10.10;99.90
19868;DHT22;10096;51.112;6.776;2022-12-22T00:46:25;9.90;1.00
19868;DHT22;10096;51.112;6.776;2022-12-22T00:49:10;9.90;1.00
19868;DHT22;10096;51.112;6.776;2022-12-22T00:51:55;9.90;1.00
19868;DHT22;10096;51.112;6.776;2022-12-22T00:54:41;9.90;1.00
19868;DHT22;10096;51.112;6.776;2022-12-22T00:57:26;9.90;76.00
19868;DHT22;10096;51.112;6.776;2022-12-22T01:00:15;9.90;99.90
19868;DHT22;10096;51.112;6.776;2022-12-22T01:03:00;9.90;1.00
19868;DHT22;10096;51.112;6.776;2022-12-22T01:05:45;10.10;1.00
19868;DHT22;10096;51.112;6.776;2022-12-22T01:08:29;9.90;1.00
19868;DHT22;10096;51.112;6.776;2022-12-22T01:11:15;9.90;99.90
19868;DHT22;10096;51.112;6.776;2022-12-22T01:13:59;9.90;1.00
19868;DHT22;10096;51.112;6.776;2022-12-22T01:16:43;9.90;1.00
19868;DHT22;10096;51.112;6.776;2022-12-22T01:19:28;10.00;99.90
19868;DHT22;10096;51.112;6.776;2022-12-22T01:22:16;9.80;1.00
19868;DHT22;10096;51.112;6.776;2022-12-22T01:25:01;9.90;99.90
19868;DHT22;10096;51.112;6.776;2022-12-22T01:27:47;9.90;1.00
19868;DHT22;10096;51.112;6.776;2022-12-22T01:30:31;10.00;99.90
19868;DHT22;10096;51.112;6.776;2022-12-22T01:33:15;9.90;27.00
19868;DHT22;10096;51.112;6.776;2022-12-22T01:36:00;9.80;1.00
19868;DHT22;10096;51.112;6.776;2022-12-22T01:38:44;9.80;1.00
19868;DHT22;10096;51.112;6.776;2022-12-22T01:41:28;9.80;99.90
19868;DHT22;10096;51.112;6.776;2022-12-22T01:44:16;9.80;99.90
19868;DHT22;10096;51.112;6.776;2022-12-22T01:47:31;9.80;30.40
19868;DHT22;10096;51.112;6.776;2022-12-22T01:50:19;9.80;97.20
19868;DHT22;10096;51.112;6.776;2022-12-22T01:53:07;9.70;90.80
19868;DHT22;10096;51.112;6.776;2022-12-22T01:55:53;9.90;1.00
19868;DHT22;10096;51.112;6.776;2022-12-22T01:58:42;10.00;1.00
19868;DHT22;10096;51.112;6.776;2022-12-22T02:01:30;9.80;1.00
19868;DHT22;10096;51.112;6.776;2022-12-22T02:04:15;9.90;1.00
19868;DHT22;10096;51.112;6.776;2022-12-22T02:07:05;10.20;99.90
19868;DHT22;10096;51.112;6.776;2022-12-22T02:10:02;10.30;1.00
19868;DHT22;10096;51.112;6.776;2022-12-22T02:12:57;10.10;75.40
19868;DHT22;10096;51.112;6.776;2022-12-22T02:15:47;10.10;58.90
19868;DHT22;10096;51.112;6.776;2022-12-22T02:18:40;10.10;1.00
19868;DHT22;10096;51.112;6.776;2022-12-22T02:21:27;10.10;99.90
19868;DHT22;10096;51.112;6.776;2022-12-22T02:24:20;10.10;1.00
19868;DHT22;10096;51.112;6.776;2022-12-22T02:27:08;10.30;1.00
19868;DHT22;10096;51.112;6.776;2022-12-22T02:29:55;10.10;99.90
19868;DHT22;10096;51.112;6.776;2022-12-22T02:32:42;10.30;1.00
19868;DHT22;10096;51.112;6.776;2022-12-22T02:35:26;10.30;99.90
19868;DHT22;10096;51.112;6.776;2022-12-22T02:38:17;10.30;99.90
19868;DHT22;10096;51.112;6.776;2022-12-22T02:41:11;10.20;1.00
19868;DHT22;10096;51.112;6.776;2022-12-22T02:44:10;10.10;91.50
19868;DHT22;10096;51.112;6.776;2022-12-22T02:47:02;10.10;1.00
19868;DHT22;10096;51.112;6.776;2022-12-22T02:49:53;10.10;99.90
19868;DHT22;10096;51.112;6.776;2022-12-22T02:52:40;10.10;1.00
19868;DHT22;10096;51.112;6.776;2022-12-22T02:55:25;10.40;99.90
19868;DHT22;10096;51.112;6.776;2022-12-22T02:58:12;10.10;99.90
19868;DHT22;10096;51.112;6.776;2022-12-22T03:00:59;10.20;99.90
19868;DHT22;10096;51.112;6.776;2022-12-22T03:03:48;10.20;1.00
19868;DHT22;10096;51.112;6.776;2022-12-22T03:06:32;10.20;1.00
19868;DHT22;10096;51.112;6.776;2022-12-22T03:09:17;10.20;99.90
19868;DHT22;10096;51.112;6.776;2022-12-22T03:12:01;10.20;1.00
19868;DHT22;10096;51.112;6.776;2022-12-22T03:14:45;10.10;1.00
19868;DHT22;10096;51.112;6.776;2022-12-22T03:17:31;10.20;1.00
19868;DHT22;10096;51.112;6.776;2022-12-22T03:20:15;10.20;1.00
19868;DHT22;10096;51.112;6.776;2022-12-22T03:23:03;10.20;1.00
19868;DHT22;10096;51.112;6.776;2022-12-22T03:25:47;10.10;1.00
19868;DHT22;10096;51.112;6.776;2022-12-22T03:28:19;10.20;77.90
19868;DHT22;10096;51.112;6.776;2022-12-22T03:30:53;10.20;99.90
19868;DHT22;10096;51.112;6.776;2022-12-22T03:33:22;10.20;99.90
19868;DHT22;10096;51.112;6.776;2022-12-22T03:35:49;10.40;1.00
19868;DHT22;10096;51.112;6.776;2022-12-22T03:38:16;10.30;1.00
19868;DHT22;10096;51.112;6.776;2022-12-22T03:40:42;10.20;1.00
19868;DHT22;10096;51.112;6.776;2022-12-22T03:43:10;10.20;1.00
19868;DHT22;10096;51.112;6.776;2022-12-22T03:45:55;10.20;1.00
19868;DHT22;10096;51.112;6.776;2022-12-22T03:48:49;10.30;54.20
19868;DHT22;10096;51.112;6.776;2022-12-22T03:51:30;10.40;99.90
19868;DHT22;10096;51.112;6.776;2022-12-22T03:53:57;10.30;1.00
19868;DHT22;10096;51.112;6.776;2022-12-22T03:56:24;10.30;99.90
19868;DHT22;10096;51.112;6.776;2022-12-22T03:58:51;10.40;1.00
19868;DHT22;10096;51.112;6.776;2022-12-22T04:01:19;10.40;1.00
19868;DHT22;10096;51.112;6.776;2022-12-22T04:03:45;10.60;1.00
19868;DHT22;10096;51.112;6.776;2022-12-22T04:06:14;10.70;1.00
19868;DHT22;10096;51.112;6.776;2022-12-22T04:08:41;10.40;99.90
19868;DHT22;10096;51.112;6.776;2022-12-22T04:11:13;10.40;1.00
19868;DHT22;10096;51.112;6.776;2022-12-22T04:13:58;10.50;1.00
19868;DHT22;10096;51.112;6.776;2022-12-22T04:16:25;10.50;99.90
19868;DHT22;10096;51.112;6.776;2022-12-22T04:18:52;10.60;99.90
19868;DHT22;10096;51.112;6.776;2022-12-22T04:21:20;10.40;1.00
19868;DHT22;10096;51.112;6.776;2022-12-22T04:23:47;10.40;1.00
19868;DHT22;10096;51.112;6.776;2022-12-22T04:26:16;10.50;99.90
19868;DHT22;10096;51.112;6.776;2022-12-22T04:28:44;10.40;99.90
19868;DHT22;10096;51.112;6.776;2022-12-22T04:31:10;10.60;1.00
19868;DHT22;10096;51.112;6.776;2022-12-22T04:33:38;10.60;99.90
19868;DHT22;10096;51.112;6.776;2022-12-22T04:36:05;10.60;1.00
19868;DHT22;10096;51.112;6.776;2022-12-22T04:38:34;10.60;90.60
19868;DHT22;10096;51.112;6.776;2022-12-22T04:41:02;10.50;1.00
19868;DHT22;10096;51.112;6.776;2022-12-22T04:43:29;10.70;1.00
19868;DHT22;10096;51.112;6.776;2022-12-22T04:45:56;10.80;1.00
19868;DHT22;10096;51.112;6.776;2022-12-22T04:48:24;10.80;99.90
19868;DHT22;10096;51.112;6.776;2022-12-22T04:50:51;10.90;1.00
19868;DHT22;10096;51.112;6.776;2022-12-22T04:53:19;11.00;1.00
19868;DHT22;10096;51.112;6.776;2022-12-22T04:55:49;10.80;1.00
19868;DHT22;10096;51.112;6.776;2022-12-22T04:58:16;10.90;99.90
19868;DHT22;10096;51.112;6.776;2022-12-22T05:00:43;11.00;99.90
19868;DHT22;10096;51.112;6.776;2022-12-22T05:03:10;10.80;99.90
19868;DHT22;10096;51.112;6.776;2022-12-22T05:05:37;10.90;1.00
19868;DHT22;10096;51.112;6.776;2022-12-22T05:08:04;11.00;99.90
19868;DHT22;10096;51.112;6.776;2022-12-22T05:10:31;10.90;16.70
19868;DHT22;10096;51.112;6.776;2022-12-22T05:13:00;10.90;42.70
19868;DHT22;10096;51.112;6.776;2022-12-22T05:15:28;10.90;1.00
19868;DHT22;10096;51.112;6.776;2022-12-22T05:17:56;10.70;99.90
19868;DHT22;10096;51.112;6.776;2022-12-22T05:20:24;10.80;1.00
19868;DHT22;10096;51.112;6.776;2022-12-22T05:22:52;11.00;1.00
19868;DHT22;10096;51.112;6.776;2022-12-22T05:25:19;11.00;1.00
19868;DHT22;10096;51.112;6.776;2022-12-22T05:27:48;11.00;1.00
19868;DHT22;10096;51.112;6.776;2022-12-22T05:30:18;10.80;1.00
19868;DHT22;10096;51.112;6.776;2022-12-22T05:32:45;11.10;1.00
19868;DHT22;10096;51.112;6.776;2022-12-22T05:35:13;10.90;1.00
19868;DHT22;10096;51.112;6.776;2022-12-22T05:37:40;11.20;93.80
19868;DHT22;10096;51.112;6.776;2022-12-22T05:40:08;11.20;1.00
19868;DHT22;10096;51.112;6.776;2022-12-22T05:42:36;11.10;1.00
19868;DHT22;10096;51.112;6.776;2022-12-22T05:45:06;11.30;99.90
19868;DHT22;10096;51.112;6.776;2022-12-22T05:47:34;11.10;1.00
19868;DHT22;10096;51.112;6.776;2022-12-22T05:50:05;11.30;99.90
19868;DHT22;10096;51.112;6.776;2022-12-22T05:52:32;11.10;99.90
19868;DHT22;10096;51.112;6.776;2022-12-22T05:55:00;11.20;1.00
19868;DHT22;10096;51.112;6.776;2022-12-22T05:57:27;11.10;1.00
19868;DHT22;10096;51.112;6.776;2022-12-22T05:59:54;11.10;99.90
19868;DHT22;10096;51.112;6.776;2022-12-22T06:02:21;11.30;14.00
19868;DHT22;10096;51.112;6.776;2022-12-22T06:04:49;11.30;99.90
19868;DHT22;10096;51.112;6.776;2022-12-22T06:07:16;11.30;1.00
19868;DHT22;10096;51.112;6.776;2022-12-22T06:09:43;11.20;1.00
19868;DHT22;10096;51.112;6.776;2022-12-22T06:12:10;11.10;99.90
19868;DHT22;10096;51.112;6.776;2022-12-22T06:14:38;11.40;99.90
19868;DHT22;10096;51.112;6.776;2022-12-22T06:17:05;11.10;1.00
19868;DHT22;10096;51.112;6.776;2022-12-22T06:19:32;11.10;99.90
19868;DHT22;10096;51.112;6.776;2022-12-22T06:22:00;11.10;1.00
19868;DHT22;10096;51.112;6.776;2022-12-22T06:24:27;11.10;99.90
19868;DHT22;10096;51.112;6.776;2022-12-22T06:26:54;11.30;99.90
19868;DHT22;10096;51.112;6.776;2022-12-22T06:29:21;11.10;99.90
19868;DHT22;10096;51.112;6.776;2022-12-22T06:31:48;11.00;1.00
19868;DHT22;10096;51.112;6.776;2022-12-22T06:34:15;11.20;1.00
19868;DHT22;10096;51.112;6.776;2022-12-22T06:36:43;11.20;1.00
19868;DHT22;10096;51.112;6.776;2022-12-22T06:39:12;11.00;99.90
19868;DHT22;10096;51.112;6.776;2022-12-22T06:41:39;11.20;1.00
19868;DHT22;10096;51.112;6.776;2022-12-22T06:44:24;11.00;1.00
19868;DHT22;10096;51.112;6.776;2022-12-22T06:46:51;10.80;99.90
19868;DHT22;10096;51.112;6.776;2022-12-22T06:49:18;10.90;1.00
19868;DHT22;10096;51.112;6.776;2022-12-22T06:51:45;10.80;1.00
19868;DHT22;10096;51.112;6.776;2022-12-22T06:54:14;10.90;99.90
19868;DHT22;10096;51.112;6.776;2022-12-22T06:56:41;10.90;99.90
19868;DHT22;10096;51.112;6.776;2022-12-22T06:59:08;10.90;99.90
19868;DHT22;10096;51.112;6.776;2022-12-22T07:01:34;10.90;99.90
19868;DHT22;10096;51.112;6.776;2022-12-22T07:04:01;11.00;99.90
19868;DHT22;10096;51.112;6.776;2022-12-22T07:06:28;10.90;1.00
19868;DHT22;10096;51.112;6.776;2022-12-22T07:08:56;10.80;1.00
19868;DHT22;10096;51.112;6.776;2022-12-22T07:11:25;10.80;99.90
19868;DHT22;10096;51.112;6.776;2022-12-22T07:13:51;11.00;1.00
19868;DHT22;10096;51.112;6.776;2022-12-22T07:16:20;11.00;1.00
19868;DHT22;10096;51.112;6.776;2022-12-22T07:18:47;10.90;99.90
19868;DHT22;10096;51.112;6.776;2022-12-22T07:21:14;10.70;1.00
19868;DHT22;10096;51.112;6.776;2022-12-22T07:23:41;10.80;1.00
19868;DHT22;10096;51.112;6.776;2022-12-22T07:26:13;10.90;1.00
19868;DHT22;10096;51.112;6.776;2022-12-22T07:28:41;10.80;34.30
19868;DHT22;10096;51.112;6.776;2022-12-22T07:31:10;11.00;1.00
19868;DHT22;10096;51.112;6.776;2022-12-22T07:33:37;10.80;1.00
19868;DHT22;10096;51.112;6.776;2022-12-22T07:36:07;10.80;99.90
19868;DHT22;10096;51.112;6.776;2022-12-22T07:38:36;11.00;99.90
19868;DHT22;10096;51.112;6.776;2022-12-22T07:41:04;11.10;99.90
19868;DHT22;10096;51.112;6.776;2022-12-22T07:43:55;11.10;8.90
19868;DHT22;10096;51.112;6.776;2022-12-22T07:46:21;11.10;1.00
19868;DHT22;10096;51.112;6.776;2022-12-22T07:48:48;11.30;1.00
19868;DHT22;10096;51.112;6.776;2022-12-22T07:51:32;11.10;1.00
19868;DHT22;10096;51.112;6.776;2022-12-22T07:54:00;11.40;65.30
19868;DHT22;10096;51.112;6.776;2022-12-22T07:56:27;11.20;1.00
19868;DHT22;10096;51.112;6.776;2022-12-22T07:58:56;11.20;1.00
19868;DHT22;10096;51.112;6.776;2022-12-22T08:01:24;11.20;1.00
19868;DHT22;10096;51.112;6.776;2022-12-22T08:03:51;11.20;1.00
19868;DHT22;10096;51.112;6.776;2022-12-22T08:06:18;11.20;35.60
19868;DHT22;10096;51.112;6.776;2022-12-22T08:08:45;11.30;99.90
19868;DHT22;10096;51.112;6.776;2022-12-22T08:11:12;11.20;99.90
19868;DHT22;10096;51.112;6.776;2022-12-22T08:13:39;11.30;1.00
19868;DHT22;10096;51.112;6.776;2022-12-22T08:16:12;11.30;1.00
19868;DHT22;10096;51.112;6.776;2022-12-22T08:18:39;11.50;1.00
19868;DHT22;10096;51.112;6.776;2022-12-22T08:21:07;11.20;1.00
19868;DHT22;10096;51.112;6.776;2022-12-22T08:23:34;11.30;1.00
19868;DHT22;10096;51.112;6.776;2022-12-22T08:26:06;11.30;1.00
19868;DHT22;10096;51.112;6.776;2022-12-22T08:28:38;11.40;1.00
19868;DHT22;10096;51.112;6.776;2022-12-22T08:31:06;11.50;1.00
19868;DHT22;10096;51.112;6.776;2022-12-22T08:33:35;11.30;1.00
19868;DHT22;10096;51.112;6.776;2022-12-22T08:36:03;11.50;99.90
19868;DHT22;10096;51.112;6.776;2022-12-22T08:38:31;11.40;99.90
19868;DHT22;10096;51.112;6.776;2022-12-22T08:40:58;11.30;99.90
19868;DHT22;10096;51.112;6.776;2022-12-22T08:43:25;11.40;99.90
19868;DHT22;10096;51.112;6.776;2022-12-22T08:45:53;11.40;1.00
19868;DHT22;10096;51.112;6.776;2022-12-22T08:48:20;11.40;1.00
19868;DHT22;10096;51.112;6.776;2022-12-22T08:50:48;11.50;99.90
19868;DHT22;10096;51.112;6.776;2022-12-22T08:53:15;11.50;1.00
19868;DHT22;10096;51.112;6.776;2022-12-22T08:55:49;11.60;1.00
19868;DHT22;10096;51.112;6.776;2022-12-22T08:58:16;11.70;1.00
19868;DHT22;10096;51.112;6.776;2022-12-22T09:00:43;11.50;99.90
19868;DHT22;10096;51.112;6.776;2022-12-22T09:03:10;11.50;99.90
19868;DHT22;10096;51.112;6.776;2022-12-22T09:05:37;11.70;1.00
19868;DHT22;10096;51.112;6.776;2022-12-22T09:08:06;11.70;99.90
19868;DHT22;10096;51.112;6.776;2022-12-22T09:10:33;11.80;99.90
19868;DHT22;10096;51.112;6.776;2022-12-22T09:13:00;11.70;99.90
19868;DHT22;10096;51.112;6.776;2022-12-22T09:15:27;11.50;99.90
19868;DHT22;10096;51.112;6.776;2022-12-22T09:17:54;11.60;99.90
19868;DHT22;10096;51.112;6.776;2022-12-22T09:20:21;11.80;99.90
19868;DHT22;10096;51.112;6.776;2022-12-22T09:22:48;11.70;99.90
19868;DHT22;10096;51.112;6.776;2022-12-22T09:25:16;11.80;99.90
19868;DHT22;10096;51.112;6.776;2022-12-22T09:27:43;11.70;10.00
19868;DHT22;10096;51.112;6.776;2022-12-22T09:30:10;11.70;1.00
19868;DHT22;10096;51.112;6.776;2022-12-22T09:32:38;11.80;1.00
19868;DHT22;10096;51.112;6.776;2022-12-22T09:35:05;11.80;1.00
19868;DHT22;10096;51.112;6.776;2022-12-22T09:37:32;11.80;1.00
19868;DHT22;10096;51.112;6.776;2022-12-22T09:39:59;11.80;1.00
19868;DHT22;10096;51.112;6.776;2022-12-22T09:42:32;11.70;1.00
19868;DHT22;10096;51.112;6.776;2022-12-22T09:44:59;11.80;1.00
19868;DHT22;10096;51.112;6.776;2022-12-22T09:47:31;11.80;1.00
19868;DHT22;10096;51.112;6.776;2022-12-22T09:50:03;12.00;99.90
19868;DHT22;10096;51.112;6.776;2022-12-22T09:52:40;12.10;99.90
19868;DHT22;10096;51.112;6.776;2022-12-22T09:55:13;12.00;99.90
19868;DHT22;10096;51.112;6.776;2022-12-22T09:57:42;11.90;99.90
19868;DHT22;10096;51.112;6.776;2022-12-22T10:00:13;11.80;99.90
19868;DHT22;10096;51.112;6.776;2022-12-22T10:02:48;11.80;99.90
19868;DHT22;10096;51.112;6.776;2022-12-22T10:05:23;11.70;99.90
19868;DHT22;10096;51.112;6.776;2022-12-22T10:07:59;11.70;99.90
19868;DHT22;10096;51.112;6.776;2022-12-22T10:10:29;11.70;99.90
19868;DHT22;10096;51.112;6.776;2022-12-22T10:12:59;11.70;99.90
19868;DHT22;10096;51.112;6.776;2022-12-22T10:15:33;11.60;99.90
19868;DHT22;10096;51.112;6.776;2022-12-22T10:18:09;11.60;99.90
19868;DHT22;10096;51.112;6.776;2022-12-22T10:20:37;11.40;99.90
19868;DHT22;10096;51.112;6.776;2022-12-22T10:23:14;11.70;99.90
19868;DHT22;10096;51.112;6.776;2022-12-22T10:25:45;11.80;99.90
19868;DHT22;10096;51.112;6.776;2022-12-22T10:28:29;11.70;99.90
19868;DHT22;10096;51.112;6.776;2022-12-22T10:31:15;12.00;76.20
19868;DHT22;10096;51.112;6.776;2022-12-22T10:33:43;11.90;1.00
19868;DHT22;10096;51.112;6.776;2022-12-22T10:36:12;11.90;1.00
19868;DHT22;10096;51.112;6.776;2022-12-22T10:38:52;12.00;1.00
19868;DHT22;10096;51.112;6.776;2022-12-22T10:41:22;11.90;1.00
19868;DHT22;10096;51.112;6.776;2022-12-22T10:43:53;11.80;1.00
19868;DHT22;10096;51.112;6.776;2022-12-22T10:46:33;11.80;1.00
19868;DHT22;10096;51.112;6.776;2022-12-22T10:49:17;11.80;1.00
19868;DHT22;10096;51.112;6.776;2022-12-22T10:51:47;11.90;1.00
19868;DHT22;10096;51.112;6.776;2022-12-22T10:54:30;12.10;1.00
19868;DHT22;10096;51.112;6.776;2022-12-22T10:57:03;12.00;1.00
19868;DHT22;10096;51.112;6.776;2022-12-22T10:59:33;12.10;1.00
19868;DHT22;10096;51.112;6.776;2022-12-22T11:02:23;12.10;1.00
19868;DHT22;10096;51.112;6.776;2022-12-22T11:04:51;12.00;1.00
19868;DHT22;10096;51.112;6.776;2022-12-22T11:07:18;12.00;1.00
19868;DHT22;10096;51.112;6.776;2022-12-22T11:09:46;12.10;1.00
19868;DHT22;10096;51.112;6.776;2022-12-22T11:12:21;12.20;1.00
19868;DHT22;10096;51.112;6.776;2022-12-22T11:14:55;12.20;1.00
19868;DHT22;10096;51.112;6.776;2022-12-22T11:17:30;12.00;1.00
19868;DHT22;10096;51.112;6.776;2022-12-22T11:20:16;11.80;1.00
19868;DHT22;10096;51.112;6.776;2022-12-22T11:22:53;11.90;1.00
19868;DHT22;10096;51.112;6.776;2022-12-22T11:25:29;12.00;1.00
19868;DHT22;10096;51.112;6.776;2022-12-22T11:28:12;11.80;1.00
19868;DHT22;10096;51.112;6.776;2022-12-22T11:30:51;11.80;1.00
19868;DHT22;10096;51.112;6.776;2022-12-22T11:33:30;11.70;1.00
19868;DHT22;10096;51.112;6.776;2022-12-22T11:36:02;11.80;1.00
19868;DHT22;10096;51.112;6.776;2022-12-22T11:38:44;11.80;1.00
19868;DHT22;10096;51.112;6.776;2022-12-22T11:41:30;11.80;1.00
19868;DHT22;10096;51.112;6.776;2022-12-22T11:44:19;11.80;99.90
19868;DHT22;10096;51.112;6.776;2022-12-22T11:46:53;11.70;99.90
19868;DHT22;10096;51.112;6.776;2022-12-22T11:49:43;11.60;99.90
19868;DHT22;10096;51.112;6.776;2022-12-22T11:52:27;11.60;99.90
19868;DHT22;10096;51.112;6.776;2022-12-22T11:55:12;11.70;99.90
19868;DHT22;10096;51.112;6.776;2022-12-22T11:57:51;11.70;99.90
19868;DHT22;10096;51.112;6.776;2022-12-22T12:00:22;11.80;99.90
19868;DHT22;10096;51.112;6.776;2022-12-22T12:03:09;12.10;99.90
19868;DHT22;10096;51.112;6.776;2022-12-22T12:06:16;12.00;99.90
19868;DHT22;10096;51.112;6.776;2022-12-22T12:08:57;11.90;99.90
19868;DHT22;10096;51.112;6.776;2022-12-22T12:11:31;12.00;99.90
19868;DHT22;10096;51.112;6.776;2022-12-22T12:14:05;12.10;99.90
19868;DHT22;10096;51.112;6.776;2022-12-22T12:16:40;11.80;99.90
19868;DHT22;10096;51.112;6.776;2022-12-22T12:19:31;11.80;99.90
19868;DHT22;10096;51.112;6.776;2022-12-22T12:22:04;11.90;99.90
19868;DHT22;10096;51.112;6.776;2022-12-22T12:24:52;11.80;99.90
19868;DHT22;10096;51.112;6.776;2022-12-22T12:27:34;12.00;99.90
19868;DHT22;10096;51.112;6.776;2022-12-22T12:30:04;12.00;99.90
19868;DHT22;10096;51.112;6.776;2022-12-22T12:32:38;12.00;99.90
19868;DHT22;10096;51.112;6.776;2022-12-22T12:35:27;12.00;99.90
19868;DHT22;10096;51.112;6.776;2022-12-22T12:38:02;11.90;99.90
19868;DHT22;10096;51.112;6.776;2022-12-22T12:40:37;11.70;99.90
19868;DHT22;10096;51.112;6.776;2022-12-22T12:43:06;11.90;99.90
19868;DHT22;10096;51.112;6.776;2022-12-22T12:45:36;11.70;68.60
19868;DHT22;10096;51.112;6.776;2022-12-22T12:48:35;11.80;70.10
19868;DHT22;10096;51.112;6.776;2022-12-22T12:51:46;11.80;82.90
19868;DHT22;10096;51.112;6.776;2022-12-22T12:57:26;11.90;27.50
19868;DHT22;10096;51.112;6.776;2022-12-22T12:59:54;11.90;18.40
19868;DHT22;10096;51.112;6.776;2022-12-22T13:02:35;11.80;16.30
19868;DHT22;10096;51.112;6.776;2022-12-22T13:05:27;11.90;56.70
19868;DHT22;10096;51.112;6.776;2022-12-22T13:08:15;11.90;1.00
19868;DHT22;10096;51.112;6.776;2022-12-22T13:10:45;12.10;1.00
19868;DHT22;10096;51.112;6.776;2022-12-22T13:13:49;12.40;5.90
19868;DHT22;10096;51.112;6.776;2022-12-22T13:16:29;12.50;1.00
19868;DHT22;10096;51.112;6.776;2022-12-22T13:18:58;12.60;1.00
19868;DHT22;10096;51.112;6.776;2022-12-22T13:21:37;12.60;1.00
19868;DHT22;10096;51.112;6.776;2022-12-22T13:24:14;12.80;1.00
19868;DHT22;10096;51.112;6.776;2022-12-22T13:26:44;12.70;1.00
19868;DHT22;10096;51.112;6.776;2022-12-22T13:29:18;12.80;1.00
19868;DHT22;10096;51.112;6.776;2022-12-22T13:31:51;13.00;1.00
19868;DHT22;10096;51.112;6.776;2022-12-22T13:34:41;12.90;1.00
19868;DHT22;10096;51.112;6.776;2022-12-22T13:37:17;12.90;1.00
19868;DHT22;10096;51.112;6.776;2022-12-22T13:40:21;12.70;1.00
19868;DHT22;10096;51.112;6.776;2022-12-22T13:42:50;12.80;1.00
19868;DHT22;10096;51.112;6.776;2022-12-22T13:45:26;12.60;1.00
19868;DHT22;10096;51.112;6.776;2022-12-22T13:47:55;12.60;1.00
19868;DHT22;10096;51.112;6.776;2022-12-22T13:50:25;12.40;1.00
19868;DHT22;10096;51.112;6.776;2022-12-22T13:52:55;12.50;1.00
19868;DHT22;10096;51.112;6.776;2022-12-22T13:55:25;12.60;1.00
19868;DHT22;10096;51.112;6.776;2022-12-22T13:57:54;12.40;1.00
19868;DHT22;10096;51.112;6.776;2022-12-22T14:00:24;12.60;1.00
19868;DHT22;10096;51.112;6.776;2022-12-22T14:02:52;12.60;1.00
19868;DHT22;10096;51.112;6.776;2022-12-22T14:05:19;12.10;1.00
19868;DHT22;10096;51.112;6.776;2022-12-22T14:08:00;12.10;1.00
19868;DHT22;10096;51.112;6.776;2022-12-22T14:10:33;11.90;1.00
19868;DHT22;10096;51.112;6.776;2022-12-22T14:13:03;11.70;1.00
19868;DHT22;10096;51.112;6.776;2022-12-22T14:15:33;11.70;6.40
19868;DHT22;10096;51.112;6.776;2022-12-22T14:18:00;11.60;20.40
19868;DHT22;10096;51.112;6.776;2022-12-22T14:20:30;11.70;29.50
19868;DHT22;10096;51.112;6.776;2022-12-22T14:23:03;11.50;58.00
19868;DHT22;10096;51.112;6.776;2022-12-22T14:25:34;11.50;59.80
19868;DHT22;10096;51.112;6.776;2022-12-22T14:28:13;11.50;37.70
19868;DHT22;10096;51.112;6.776;2022-12-22T14:30:45;11.40;95.50
19868;DHT22;10096;51.112;6.776;2022-12-22T14:33:20;11.20;60.10
19868;DHT22;10096;51.112;6.776;2022-12-22T14:36:14;11.10;90.10
19868;DHT22;10096;51.112;6.776;2022-12-22T14:38:44;10.90;72.90
19868;DHT22;10096;51.112;6.776;2022-12-22T14:41:18;10.80;97.00
19868;DHT22;10096;51.112;6.776;2022-12-22T14:44:00;10.70;99.90
19868;DHT22;10096;51.112;6.776;2022-12-22T14:46:28;10.60;99.90
19868;DHT22;10096;51.112;6.776;2022-12-22T14:48:57;10.60;99.90
19868;DHT22;10096;51.112;6.776;2022-12-22T14:51:26;10.70;99.90
19868;DHT22;10096;51.112;6.776;2022-12-22T14:53:54;10.70;99.90
19868;DHT22;10096;51.112;6.776;2022-12-22T14:56:24;10.70;99.90
19868;DHT22;10096;51.112;6.776;2022-12-22T14:59:07;10.70;99.90
19868;DHT22;10096;51.112;6.776;2022-12-22T15:01:34;10.80;99.90
19868;DHT22;10096;51.112;6.776;2022-12-22T15:04:06;10.90;99.90
19868;DHT22;10096;51.112;6.776;2022-12-22T15:06:37;10.70;95.40
19868;DHT22;10096;51.112;6.776;2022-12-22T15:09:25;11.00;86.20
19868;DHT22;10096;51.112;6.776;2022-12-22T15:11:56;10.60;99.90
19868;DHT22;10096;51.112;6.776;2022-12-22T15:14:29;10.60;99.90
19868;DHT22;10096;51.112;6.776;2022-12-22T15:16:58;10.50;99.90
19868;DHT22;10096;51.112;6.776;2022-12-22T15:19:28;10.60;99.90
19868;DHT22;10096;51.112;6.776;2022-12-22T15:21:56;10.60;99.90
19868;DHT22;10096;51.112;6.776;2022-12-22T15:24:24;10.70;99.90
19868;DHT22;10096;51.112;6.776;2022-12-22T15:26:52;10.50;99.90
19868;DHT22;10096;51.112;6.776;2022-12-22T15:29:19;10.50;99.90
19868;DHT22;10096;51.112;6.776;2022-12-22T15:31:46;10.50;99.90
19868;DHT22;10096;51.112;6.776;2022-12-22T15:34:18;10.60;99.90
19868;DHT22;10096;51.112;6.776;2022-12-22T15:36:46;10.50;99.90
19868;DHT22;10096;51.112;6.776;2022-12-22T15:39:14;10.30;99.90
19868;DHT22;10096;51.112;6.776;2022-12-22T15:41:41;10.40;99.90
19868;DHT22;10096;51.112;6.776;2022-12-22T15:44:12;10.40;99.90
19868;DHT22;10096;51.112;6.776;2022-12-22T15:46:42;10.30;99.90
19868;DHT22;10096;51.112;6.776;2022-12-22T15:49:13;10.30;1.00
19868;DHT22;10096;51.112;6.776;2022-12-22T15:51:42;10.50;1.00
19868;DHT22;10096;51.112;6.776;2022-12-22T15:54:14;10.30;1.00
19868;DHT22;10096;51.112;6.776;2022-12-22T15:56:43;10.30;1.00
19868;DHT22;10096;51.112;6.776;2022-12-22T15:59:18;10.20;1.00
19868;DHT22;10096;51.112;6.776;2022-12-22T16:01:46;10.50;1.00
19868;DHT22;10096;51.112;6.776;2022-12-22T16:04:15;10.40;1.00
19868;DHT22;10096;51.112;6.776;2022-12-22T16:06:42;10.30;1.00
19868;DHT22;10096;51.112;6.776;2022-12-22T16:09:16;10.20;1.00
19868;DHT22;10096;51.112;6.776;2022-12-22T16:11:45;10.20;1.00
19868;DHT22;10096;51.112;6.776;2022-12-22T16:14:25;10.40;1.00
19868;DHT22;10096;51.112;6.776;2022-12-22T16:16:51;10.20;1.00
19868;DHT22;10096;51.112;6.776;2022-12-22T16:19:18;10.40;1.00
19868;DHT22;10096;51.112;6.776;2022-12-22T16:21:51;10.20;1.00
19868;DHT22;10096;51.112;6.776;2022-12-22T16:24:23;10.20;1.00
19868;DHT22;10096;51.112;6.776;2022-12-22T16:26:52;10.10;1.00
19868;DHT22;10096;51.112;6.776;2022-12-22T16:29:25;10.20;1.00
19868;DHT22;10096;51.112;6.776;2022-12-22T16:31:52;10.20;1.00